createdAt,value
2018-12-10T00:01:13.956Z,101354.39
2018-12-10T00:03:53.430Z,101358.99
2018-12-10T00:06:31.778Z,101381.46
2018-12-10T00:09:09.710Z,101395.11
2018-12-10T00:11:47.770Z,101404.08
2018-12-10T00:14:23.746Z,101407.31
2018-12-10T00:17:00.583Z,101420.43
2018-12-10T00:19:38.121Z,101402.09
2018-12-10T00:22:16.430Z,101381.66
2018-12-10T00:27:37.888Z,101361.98
2018-12-10T00:30:14.658Z,101363.75
2018-12-10T00:32:52.142Z,101362.91
2018-12-10T00:35:27.603Z,101365.63
2018-12-10T00:38:04.357Z,101368.77
2018-12-10T00:40:46.367Z,101387.19
2018-12-10T00:43:21.332Z,101393.92
2018-12-10T00:45:56.644Z,101391.27
2018-12-10T00:48:29.770Z,101390.39
2018-12-10T00:51:07.535Z,101390.48
2018-12-10T00:53:45.312Z,101393.25
2018-12-10T00:56:20.920Z,101389.23
2018-12-10T00:58:58.408Z,101394.83
2018-12-10T01:01:36.142Z,101399.05
2018-12-10T01:04:11.890Z,101395.25
2018-12-10T01:06:49.218Z,101402.52
2018-12-10T01:09:26.013Z,101408.52
2018-12-10T01:12:03.422Z,101407.52
2018-12-10T01:14:39.677Z,101416.69
2018-12-10T01:17:17.891Z,101420.69
2018-12-10T01:19:54.940Z,101428.60
2018-12-10T01:22:32.742Z,101435.70
2018-12-10T01:25:11.316Z,101429.44
2018-12-10T01:27:40.608Z,101421.52
2018-12-10T01:30:09.710Z,101442.55
2018-12-10T01:32:39.128Z,101454.13
2018-12-10T01:35:08.559Z,101474.61
2018-12-10T01:37:37.883Z,101477.86
2018-12-10T01:40:07.386Z,101458.97
2018-12-10T01:42:36.709Z,101454.84
2018-12-10T01:45:07.978Z,101456.05
2018-12-10T01:47:37.286Z,101460.41
2018-12-10T01:50:06.846Z,101464.03
2018-12-10T01:52:36.156Z,101468.88
2018-12-10T01:55:06.159Z,101470.23
2018-12-10T01:57:35.488Z,101467.05
2018-12-10T02:00:06.760Z,101464.20
2018-12-10T02:02:36.064Z,101469.59
2018-12-10T02:05:05.584Z,101473.31
2018-12-10T02:07:34.917Z,101472.05
2018-12-10T02:10:04.422Z,101474.00
2018-12-10T02:12:33.737Z,101488.61
2018-12-10T02:15:03.044Z,101499.67
2018-12-10T02:17:32.355Z,101506.27
2018-12-10T02:20:01.664Z,101522.34
2018-12-10T02:22:31.073Z,101511.07
2018-12-10T02:25:00.455Z,101504.52
2018-12-10T02:27:29.762Z,101500.09
2018-12-10T02:29:59.116Z,101513.89
2018-12-10T02:32:28.429Z,101510.91
2018-12-10T02:34:57.760Z,101509.61
2018-12-10T02:37:27.196Z,101508.77
2018-12-10T02:39:56.506Z,101510.94
2018-12-10T02:42:25.791Z,101507.89
2018-12-10T02:44:55.133Z,101511.36
2018-12-10T02:47:24.539Z,101501.81
2018-12-10T02:49:53.844Z,101500.45
2018-12-10T02:52:23.213Z,101504.42
2018-12-10T02:54:52.522Z,101492.47
2018-12-10T02:57:21.926Z,101510.45
2018-12-10T02:59:52.489Z,101527.01
2018-12-10T03:02:21.942Z,101525.61
2018-12-10T03:04:51.284Z,101520.52
2018-12-10T03:07:20.800Z,101523.56
2018-12-10T03:09:50.203Z,101531.83
2018-12-10T03:12:19.532Z,101551.30
2018-12-10T03:14:48.864Z,101550.94
2018-12-10T03:17:18.296Z,101559.67
2018-12-10T03:19:47.701Z,101542.31
2018-12-10T03:22:16.991Z,101528.53
2018-12-10T03:24:46.325Z,101538.23
2018-12-10T03:27:22.687Z,101544.30
2018-12-10T03:29:52.021Z,101549.20
2018-12-10T03:32:21.499Z,101544.72
2018-12-10T03:34:52.318Z,101548.89
2018-12-10T03:37:21.679Z,101548.36
2018-12-10T03:39:50.979Z,101553.55
2018-12-10T03:42:20.373Z,101550.50
2018-12-10T03:44:49.705Z,101550.08
2018-12-10T03:47:19.741Z,101555.09
2018-12-10T03:49:49.035Z,101553.79
2018-12-10T03:52:18.376Z,101557.27
2018-12-10T03:54:47.700Z,101541.94
2018-12-10T03:57:17.051Z,101552.24
2018-12-10T03:59:46.375Z,101551.19
2018-12-10T04:02:15.732Z,101553.64
2018-12-10T04:04:45.140Z,101554.55
2018-12-10T04:07:14.471Z,101555.66
2018-12-10T04:09:43.794Z,101564.25
2018-12-10T04:14:53.653Z,101561.58
2018-12-10T04:17:23.110Z,101570.55
2018-12-10T04:19:53.216Z,101580.73
2018-12-10T04:22:22.643Z,101574.25
2018-12-10T04:24:51.936Z,101594.23
2018-12-10T04:27:21.398Z,101604.44
2018-12-10T04:29:50.818Z,101613.97
2018-12-10T04:32:20.177Z,101610.79
2018-12-10T04:34:49.484Z,101607.31
2018-12-10T04:37:18.840Z,101605.84
2018-12-10T04:39:48.164Z,101602.03
2018-12-10T04:42:17.599Z,101611.27
2018-12-10T04:44:46.957Z,101611.50
2018-12-10T04:47:16.358Z,101616.58
2018-12-10T04:49:45.707Z,101615.12
2018-12-10T04:52:16.655Z,101617.67
2018-12-10T04:54:45.989Z,101614.52
2018-12-10T04:57:15.287Z,101619.78
2018-12-10T04:59:52.612Z,101623.44
2018-12-10T05:02:16.075Z,101623.25
2018-12-10T05:04:45.424Z,101635.56
2018-12-10T05:07:14.740Z,101645.25
2018-12-10T05:09:44.063Z,101659.43
2018-12-10T05:12:13.379Z,101659.89
2018-12-10T05:14:42.701Z,101649.25
2018-12-10T05:17:12.049Z,101647.27
2018-12-10T05:19:41.380Z,101634.41
2018-12-10T05:22:10.707Z,101640.73
2018-12-10T05:24:40.050Z,101642.59
2018-12-10T05:27:09.352Z,101541.33
2018-12-10T05:29:38.663Z,101652.06
2018-12-10T05:32:08.488Z,101658.51
2018-12-10T05:34:37.845Z,101658.51
2018-12-10T05:37:07.390Z,101672.36
2018-12-10T05:39:38.505Z,101667.43
2018-12-10T05:42:09.196Z,101666.31
2018-12-10T05:44:38.599Z,101665.66
2018-12-10T05:47:07.921Z,101679.50
2018-12-10T05:49:37.529Z,101692.66
2018-12-10T05:52:07.193Z,101703.84
2018-12-10T05:54:36.742Z,101692.94
2018-12-10T05:57:06.589Z,101687.48
2018-12-10T05:59:39.790Z,101689.67
2018-12-10T06:02:09.304Z,101694.83
2018-12-10T06:04:38.841Z,101699.14
2018-12-10T06:07:08.536Z,101699.71
2018-12-10T06:09:38.084Z,101696.39
2018-12-10T06:12:07.680Z,101707.91
2018-12-10T06:14:37.193Z,101695.58
2018-12-10T06:17:07.044Z,101699.20
2018-12-10T06:19:36.619Z,101699.34
2018-12-10T06:22:06.427Z,101700.02
2018-12-10T06:24:35.937Z,101697.42
2018-12-10T06:27:06.545Z,101702.47
2018-12-10T06:29:36.074Z,101704.30
2018-12-10T06:32:06.374Z,101699.88
2018-12-10T06:34:35.923Z,101708.48
2018-12-10T06:37:06.400Z,101721.43
2018-12-10T06:39:35.995Z,101725.87
2018-12-10T06:42:08.267Z,101722.02
2018-12-10T06:44:39.068Z,101717.22
2018-12-10T06:47:08.749Z,101711.92
2018-12-10T06:49:38.294Z,101715.66
2018-12-10T06:52:13.540Z,101710.27
2018-12-10T06:54:43.068Z,101714.20
2018-12-10T06:57:12.800Z,101718.86
2018-12-10T06:59:42.324Z,101726.03
2018-12-10T07:02:11.911Z,101732.87
2018-12-10T07:04:41.483Z,101732.48
2018-12-10T07:07:11.010Z,101730.08
2018-12-10T07:09:40.849Z,101732.02
2018-12-10T07:12:18.414Z,101722.25
2018-12-10T07:14:48.676Z,101730.50
2018-12-10T07:17:18.217Z,101719.31
2018-12-10T07:19:47.721Z,101724.50
2018-12-10T07:22:17.239Z,101724.16
2018-12-10T07:24:46.740Z,101737.78
2018-12-10T07:27:16.324Z,101767.97
2018-12-10T07:29:45.849Z,101785.95
2018-12-10T07:32:15.360Z,101795.65
2018-12-10T07:34:44.937Z,101808.55
2018-12-10T07:37:14.537Z,101811.14
2018-12-10T07:39:44.160Z,101804.66
2018-12-10T07:42:13.691Z,101815.99
2018-12-10T07:44:43.227Z,101796.67
2018-12-10T07:47:12.760Z,101801.56
2018-12-10T07:49:42.293Z,101814.50
2018-12-10T07:52:11.884Z,101815.80
2018-12-10T07:54:41.448Z,101804.84
2018-12-10T07:57:11.000Z,101792.63
2018-12-10T07:59:40.516Z,101792.59
2018-12-10T08:02:10.101Z,101800.72
2018-12-10T08:04:39.608Z,101805.03
2018-12-10T08:07:09.260Z,101818.47
2018-12-10T08:09:38.961Z,101822.36
2018-12-10T08:12:08.544Z,101816.56
2018-12-10T08:14:38.070Z,101820.68
2018-12-10T08:17:07.596Z,101799.23
2018-12-10T08:19:37.128Z,101814.94
2018-12-10T08:22:06.657Z,101810.13
2018-12-10T08:24:44.420Z,101814.41
2018-12-10T08:27:14.015Z,101824.55
2018-12-10T08:29:43.545Z,101820.03
2018-12-10T08:32:13.091Z,101825.83
2018-12-10T08:34:42.626Z,101834.70
2018-12-10T08:37:12.134Z,101848.84
2018-12-10T08:39:41.661Z,101849.52
2018-12-10T08:42:11.179Z,101850.69
2018-12-10T08:44:40.643Z,101842.36
2018-12-10T08:47:16.263Z,101849.23
2018-12-10T08:49:41.465Z,101845.84
2018-12-10T08:52:10.896Z,101842.91
2018-12-10T08:54:40.299Z,101838.68
2018-12-10T08:57:09.693Z,101841.48
2018-12-10T08:59:39.218Z,101842.34
2018-12-10T09:02:08.648Z,101853.52
2018-12-10T09:04:37.962Z,101868.67
2018-12-10T09:07:07.244Z,101865.31
2018-12-10T09:09:36.541Z,101857.21
2018-12-10T09:12:06.524Z,101860.29
2018-12-10T09:14:36.058Z,101865.62
2018-12-10T09:17:06.540Z,101867.75
2018-12-10T09:19:35.885Z,101872.52
2018-12-10T09:24:40.470Z,101860.61
2018-12-10T09:27:09.800Z,101853.02
2018-12-10T09:29:39.229Z,101853.56
2018-12-10T09:32:08.646Z,101850.58
2018-12-10T09:34:37.975Z,101855.50
2018-12-10T09:37:07.401Z,101849.96
2018-12-10T09:39:36.704Z,101859.23
2018-12-10T09:42:06.128Z,101867.94
2018-12-10T09:44:35.440Z,101874.34
2018-12-10T09:47:06.135Z,101858.05
2018-12-10T09:49:35.504Z,101851.06
2018-12-10T09:52:06.041Z,101844.80
2018-12-10T09:54:35.365Z,101852.36
2018-12-10T09:57:04.811Z,101850.83
2018-12-10T09:59:34.129Z,101860.48
2018-12-10T10:02:03.460Z,101868.11
2018-12-10T10:04:32.786Z,101902.62
2018-12-10T10:07:02.124Z,101919.80
2018-12-10T10:09:34.271Z,101876.36
2018-12-10T10:12:03.635Z,101865.34
2018-12-10T10:14:32.944Z,101868.22
2018-12-10T10:17:02.360Z,101869.06
2018-12-10T10:19:31.669Z,101873.12
2018-12-10T10:22:01.075Z,101880.38
2018-12-10T10:24:30.402Z,101877.63
2018-12-10T10:26:59.819Z,101874.03
2018-12-10T10:29:29.215Z,101869.06
2018-12-10T10:31:58.705Z,101858.95
2018-12-10T10:34:28.141Z,101862.00
2018-12-10T10:36:57.557Z,101859.75
2018-12-10T10:39:26.861Z,101875.30
2018-12-10T10:41:57.385Z,101870.02
2018-12-10T10:44:26.862Z,101869.91
2018-12-10T10:46:56.236Z,101867.75
2018-12-10T10:49:25.628Z,101868.38
2018-12-10T10:51:54.973Z,101873.32
2018-12-10T10:54:24.276Z,101876.94
2018-12-10T10:56:53.638Z,101880.95
2018-12-10T10:59:22.985Z,101869.21
2018-12-10T11:01:59.336Z,101870.05
2018-12-10T11:04:28.668Z,101863.13
2018-12-10T11:06:57.990Z,101877.67
2018-12-10T11:10:30.032Z,101863.72
2018-12-10T11:12:59.341Z,101838.84
2018-12-10T11:15:28.997Z,101850.48
2018-12-10T11:17:58.336Z,101847.67
2018-12-10T11:20:27.652Z,101853.44
2018-12-10T11:22:57.003Z,101866.44
2018-12-10T11:25:26.441Z,101874.23
2018-12-10T11:27:55.863Z,101872.79
2018-12-10T11:30:25.270Z,101862.51
2018-12-10T11:32:54.756Z,101862.66
2018-12-10T11:35:24.200Z,101860.55
2018-12-10T11:37:53.605Z,101870.05
2018-12-10T11:40:23.123Z,101872.33
2018-12-10T11:42:52.468Z,101873.82
2018-12-10T11:45:22.849Z,101877.04
2018-12-10T11:47:52.182Z,101874.95
2018-12-10T11:50:24.425Z,101874.59
2018-12-10T11:52:53.721Z,101875.01
2018-12-10T11:55:23.048Z,101882.56
2018-12-10T11:57:52.396Z,101880.52
2018-12-10T12:00:24.079Z,101876.88
2018-12-10T12:02:53.458Z,101896.89
2018-12-10T12:05:22.825Z,101873.12
2018-12-10T12:07:52.494Z,101877.14
2018-12-10T12:10:22.637Z,101883.16
2018-12-10T12:12:51.982Z,101904.53
2018-12-10T12:15:21.479Z,101895.98
2018-12-10T12:17:50.784Z,101880.47
2018-12-10T12:20:20.399Z,101880.32
2018-12-10T12:22:49.721Z,101879.80
2018-12-10T12:25:20.195Z,101879.83
2018-12-10T12:27:57.545Z,101879.11
2018-12-10T12:30:36.962Z,101865.85
2018-12-10T12:33:06.366Z,101866.94
2018-12-10T12:35:41.400Z,101886.50
2018-12-10T12:38:15.225Z,101896.45
2018-12-10T12:40:50.571Z,101914.15
2018-12-10T12:43:28.730Z,101926.33
2018-12-10T12:46:04.355Z,101895.78
2018-12-10T12:48:34.004Z,101875.59
2018-12-10T12:51:15.546Z,101874.27
2018-12-10T12:53:53.585Z,101869.03
2018-12-10T12:56:29.661Z,101880.91
2018-12-10T12:59:08.532Z,101902.08
2018-12-10T13:01:49.426Z,101911.16
2018-12-10T13:04:28.433Z,101899.73
2018-12-10T13:07:07.560Z,101890.17
2018-12-10T13:09:45.310Z,101900.00
2018-12-10T13:12:20.893Z,101879.86
2018-12-10T13:14:59.929Z,101880.28
2018-12-10T13:17:38.997Z,101876.17
2018-12-10T13:20:17.847Z,101881.02
2018-12-10T13:22:56.139Z,101880.36
2018-12-10T13:25:28.974Z,101881.27
2018-12-10T13:28:00.454Z,101887.52
2018-12-10T13:30:39.102Z,101882.73
2018-12-10T13:33:17.056Z,101873.75
2018-12-10T13:35:54.845Z,101900.64
2018-12-10T13:38:36.727Z,101902.75
2018-12-10T13:41:12.058Z,101892.07
2018-12-10T13:43:50.949Z,101882.83
2018-12-10T13:46:27.484Z,101882.91
2018-12-10T13:51:52.346Z,101888.17
2018-12-10T13:54:29.406Z,101887.20
2018-12-10T13:57:06.780Z,101881.92
2018-12-10T13:59:44.071Z,101891.22
2018-12-10T14:02:21.628Z,101899.62
2018-12-10T14:05:06.116Z,101900.84
2018-12-10T14:07:47.957Z,101916.62
2018-12-10T14:10:25.632Z,101915.97
2018-12-10T14:13:03.245Z,101910.08
2018-12-10T14:15:41.142Z,101922.27
2018-12-10T14:18:20.772Z,101914.56
2018-12-10T14:20:59.108Z,101919.39
2018-12-10T14:23:35.967Z,101920.04
2018-12-10T14:26:14.953Z,101923.20
2018-12-10T14:28:52.027Z,101927.14
2018-12-10T14:31:33.872Z,101922.80
2018-12-10T14:34:14.738Z,101951.45
2018-12-10T14:36:57.650Z,101961.38
2018-12-10T14:39:36.823Z,101950.66
2018-12-10T14:42:26.166Z,101959.89
2018-12-10T14:45:03.518Z,101967.49
2018-12-10T14:47:46.539Z,101984.25
2018-12-10T14:50:24.402Z,101969.46
2018-12-10T14:53:02.629Z,101962.93
2018-12-10T14:58:30.065Z,101958.19
2018-12-10T15:01:08.346Z,101959.91
2018-12-10T15:06:33.177Z,101951.11
2018-12-10T15:09:11.385Z,101951.38
2018-12-10T15:14:39.913Z,101963.75
2018-12-10T15:17:17.852Z,101960.39
2018-12-10T15:19:55.338Z,101959.98
2018-12-10T15:22:35.233Z,101963.88
2018-12-10T15:30:21.438Z,101960.20
2018-12-10T15:32:59.305Z,101960.53
2018-12-10T15:35:37.545Z,101960.04
2018-12-10T15:38:16.052Z,101963.52
2018-12-10T15:40:57.503Z,101974.14
2018-12-10T15:43:37.829Z,101978.96
2018-12-10T15:46:16.043Z,101980.11
2018-12-10T15:48:56.899Z,101978.20
2018-12-10T15:51:33.632Z,101973.97
2018-12-10T15:54:10.738Z,101965.91
2018-12-10T15:56:51.619Z,101972.32
2018-12-10T15:59:29.385Z,101961.27
2018-12-10T16:02:11.784Z,101975.53
2018-12-10T16:04:49.862Z,101977.56
2018-12-10T16:07:29.382Z,101970.04
2018-12-10T16:10:08.874Z,101964.00
2018-12-10T16:12:50.306Z,101962.13
2018-12-10T16:15:29.199Z,101967.40
2018-12-10T16:18:07.515Z,101966.48
2018-12-10T16:20:47.629Z,101959.18
2018-12-10T16:23:27.874Z,101963.69
2018-12-10T16:26:07.473Z,101976.45
2018-12-10T16:28:45.019Z,101980.13
2018-12-10T16:31:21.895Z,101985.05
2018-12-10T16:34:00.055Z,101986.95
2018-12-10T16:36:39.517Z,101986.30
2018-12-10T16:39:19.443Z,101987.36
2018-12-10T16:42:02.560Z,102023.91
2018-12-10T16:44:42.788Z,101993.36
2018-12-10T16:47:21.111Z,101996.17
2018-12-10T16:52:47.954Z,101994.80
2018-12-10T16:55:30.072Z,102009.67
2018-12-10T16:58:09.562Z,102007.73
2018-12-10T17:00:46.802Z,102001.77
2018-12-10T17:03:26.164Z,102012.13
2018-12-10T17:06:01.623Z,102012.81
2018-12-10T17:11:05.131Z,102020.37
2018-12-10T17:13:42.339Z,102012.58
2018-12-10T17:16:20.599Z,102008.41
2018-12-10T17:19:01.311Z,102007.19
2018-12-10T17:21:53.464Z,102000.80
2018-12-10T17:24:31.654Z,102001.07
2018-12-10T17:27:09.900Z,102000.53
2018-12-10T17:29:48.246Z,102040.52
2018-12-10T17:32:29.014Z,102053.89
2018-12-10T17:35:10.160Z,102041.69
2018-12-10T17:37:48.300Z,102038.48
2018-12-10T17:40:25.937Z,102051.31
2018-12-10T17:43:02.813Z,102044.13
2018-12-10T17:45:41.480Z,102047.90
2018-12-10T17:53:17.572Z,102036.77
2018-12-10T17:55:56.737Z,102031.50
2018-12-10T17:58:33.738Z,102031.91
2018-12-10T18:01:11.921Z,102034.91
2018-12-10T18:03:50.361Z,102029.48
2018-12-10T18:06:28.700Z,102043.51
2018-12-10T18:09:04.622Z,102046.53
2018-12-10T18:11:42.698Z,102038.23
2018-12-10T18:14:22.986Z,102040.03
2018-12-10T18:17:04.276Z,102042.33
2018-12-10T18:22:24.792Z,102051.69
2018-12-10T18:25:02.986Z,102060.87
2018-12-10T18:27:41.386Z,102060.87
2018-12-10T18:30:19.306Z,102040.88
2018-12-10T18:32:56.880Z,102049.63
2018-12-10T18:35:32.029Z,102049.97
2018-12-10T18:38:09.854Z,102048.14
2018-12-10T18:40:47.190Z,102052.57
2018-12-10T18:43:23.760Z,102049.97
2018-12-10T18:45:59.670Z,102046.56
2018-12-10T18:48:36.991Z,102059.56
2018-12-10T18:51:12.288Z,102060.37
2018-12-10T18:53:51.048Z,102060.52
2018-12-10T18:56:30.062Z,102058.84
2018-12-10T18:59:08.041Z,102058.11
2018-12-10T19:01:46.574Z,102067.26
2018-12-10T19:04:24.569Z,102080.45
2018-12-10T19:07:03.898Z,102068.59
2018-12-10T19:09:41.116Z,102070.81
2018-12-10T19:12:18.781Z,102080.06
2018-12-10T19:14:58.605Z,102088.81
2018-12-10T19:17:35.987Z,102078.34
2018-12-10T19:20:14.119Z,102087.91
2018-12-10T19:22:57.148Z,102093.88
2018-12-10T19:25:34.200Z,102094.06
2018-12-10T19:28:13.480Z,102092.57
2018-12-10T19:30:47.222Z,102086.30
2018-12-10T19:33:30.704Z,102095.75
2018-12-10T19:36:08.174Z,102094.17
2018-12-10T19:38:45.462Z,102091.67
2018-12-10T19:41:22.705Z,102085.86
2018-12-10T19:44:00.231Z,102089.56
2018-12-10T19:46:38.977Z,102092.50
2018-12-10T19:49:16.693Z,102089.02
2018-12-10T19:51:55.343Z,102092.92
2018-12-10T19:54:34.344Z,102095.15
2018-12-10T19:57:13.229Z,102111.83
2018-12-10T19:59:51.647Z,102115.37
2018-12-10T20:02:33.581Z,102096.70
2018-12-10T20:05:11.709Z,102087.83
2018-12-10T20:07:49.208Z,102104.45
2018-12-10T20:10:25.685Z,102093.78
2018-12-10T20:13:03.289Z,102092.98
2018-12-10T20:15:40.528Z,102087.63
2018-12-10T20:18:20.218Z,102088.73
2018-12-10T20:20:58.584Z,102093.27
2018-12-10T20:23:33.142Z,102095.37
2018-12-10T20:26:10.676Z,102097.34
2018-12-10T20:28:52.042Z,102093.67
2018-12-10T20:31:30.652Z,102103.44
2018-12-10T20:34:05.798Z,102108.59
2018-12-10T20:36:44.016Z,102105.66
2018-12-10T20:39:20.578Z,102108.80
2018-12-10T20:41:58.826Z,102112.94
2018-12-10T20:44:37.764Z,102112.88
2018-12-10T20:47:14.509Z,102103.91
2018-12-10T20:49:51.061Z,102119.31
2018-12-10T20:52:33.417Z,102112.59
2018-12-10T20:55:07.830Z,102120.39
2018-12-10T21:00:12.277Z,102103.64
2018-12-10T21:02:50.775Z,102115.00
2018-12-10T21:05:29.012Z,102119.23
2018-12-10T21:08:06.917Z,102123.40
2018-12-10T21:10:43.682Z,102113.08
2018-12-10T21:13:23.894Z,102121.08
2018-12-10T21:16:03.108Z,102123.34
2018-12-10T21:18:40.224Z,102122.16
2018-12-10T21:21:18.454Z,102126.81
2018-12-10T21:23:57.848Z,102118.75
2018-12-10T21:26:34.280Z,102141.59
2018-12-10T21:29:11.147Z,102114.06
2018-12-10T21:31:49.178Z,102122.90
2018-12-10T21:34:28.326Z,102119.77
2018-12-10T21:37:05.535Z,102126.11
2018-12-10T21:39:43.971Z,102128.59
2018-12-10T21:42:21.232Z,102134.89
2018-12-10T21:44:56.395Z,102129.61
2018-12-10T21:50:21.316Z,102151.59
2018-12-10T21:52:54.030Z,102133.52
2018-12-10T21:55:27.210Z,102133.25
2018-12-10T21:58:00.182Z,102132.89
2018-12-10T22:00:33.653Z,102142.37
2018-12-10T22:03:12.523Z,102139.27
2018-12-10T22:05:49.701Z,102141.07
2018-12-10T22:08:26.279Z,102143.67
2018-12-10T22:11:02.335Z,102141.75
2018-12-10T22:13:39.577Z,102154.88
2018-12-10T22:16:22.001Z,102163.50
2018-12-10T22:21:43.745Z,102148.44
2018-12-10T22:24:21.947Z,102144.07
2018-12-10T22:26:59.549Z,102140.52
2018-12-10T22:29:40.941Z,102140.05
2018-12-10T22:32:17.509Z,102136.15
2018-12-10T22:34:55.495Z,102134.89
2018-12-10T22:37:33.329Z,102134.14
2018-12-10T22:40:10.304Z,102138.99
2018-12-10T22:42:48.541Z,102140.45
2018-12-10T22:45:27.182Z,102149.11
2018-12-10T22:48:06.285Z,102150.23
2018-12-10T22:50:44.003Z,102150.47
2018-12-10T22:56:06.402Z,102152.01
2018-12-10T22:58:43.905Z,102152.40
2018-12-10T23:01:21.990Z,102148.00
2018-12-10T23:04:00.019Z,102172.79
2018-12-10T23:06:36.861Z,102195.91
2018-12-10T23:09:17.752Z,102177.20
2018-12-10T23:11:55.863Z,102166.98
2018-12-10T23:14:31.536Z,102165.14
2018-12-10T23:17:09.216Z,102165.30
2018-12-10T23:19:44.234Z,102168.34
2018-12-10T23:22:21.250Z,102161.45
2018-12-10T23:24:58.725Z,102172.92
2018-12-10T23:27:37.813Z,102169.91
2018-12-10T23:30:18.132Z,102176.91
2018-12-10T23:32:55.402Z,102177.87
2018-12-10T23:35:32.841Z,102167.17
2018-12-10T23:38:10.837Z,102179.84
2018-12-10T23:40:48.899Z,102176.97
2018-12-10T23:43:29.065Z,102171.56
2018-12-10T23:46:07.890Z,102173.63
2018-12-10T23:48:44.922Z,102167.12
2018-12-10T23:51:22.674Z,102169.72
2018-12-10T23:53:59.390Z,102165.55
2018-12-10T23:56:37.258Z,102166.22
2018-12-10T23:59:15.111Z,102178.53
